createdAt,value
2017-11-09T07:11:35.400Z,8.50
2017-11-09T07:14:07.293Z,8.50
2017-11-09T07:16:39.990Z,8.50
2017-11-09T07:19:11.885Z,8.50
2017-11-09T07:21:43.787Z,8.50
2017-11-09T07:24:16.441Z,8.50
2017-11-09T07:26:48.317Z,8.50
2017-11-09T07:29:20.973Z,8.60
2017-11-09T07:31:52.853Z,8.50
2017-11-09T07:34:25.505Z,8.60
2017-11-09T07:36:57.378Z,8.50
2017-11-09T07:39:29.270Z,8.50
2017-11-09T07:42:01.141Z,8.50
2017-11-09T07:44:33.047Z,8.50
2017-11-09T07:47:04.921Z,8.50
2017-11-09T07:49:36.921Z,8.50
2017-11-09T07:52:08.800Z,8.50
2017-11-09T07:54:40.707Z,8.50
2017-11-09T07:57:12.581Z,8.60
2017-11-09T07:59:45.261Z,8.60
2017-11-09T08:02:17.922Z,8.50
2017-11-09T08:04:50.581Z,8.60
2017-11-09T08:07:22.697Z,8.60
2017-11-09T08:09:54.605Z,8.60
2017-11-09T08:12:26.480Z,8.60
2017-11-09T08:14:58.375Z,8.60
2017-11-09T08:17:30.253Z,8.60
2017-11-09T08:20:02.189Z,8.70
2017-11-09T08:22:34.842Z,8.70
2017-11-09T08:25:07.042Z,8.70
2017-11-09T08:27:42.124Z,8.70
2017-11-09T08:30:15.129Z,8.70
2017-11-09T08:32:50.188Z,8.70
2017-11-09T08:35:22.854Z,8.80
2017-11-09T08:37:54.740Z,8.70
2017-11-09T08:40:26.653Z,8.80
2017-11-09T08:42:58.542Z,8.80
2017-11-09T08:45:31.217Z,8.80
2017-11-09T08:48:03.857Z,8.80
2017-11-09T08:50:35.767Z,8.80
2017-11-09T08:53:07.654Z,8.90
2017-11-09T08:55:39.556Z,8.90
2017-11-09T08:58:11.429Z,8.90
2017-11-09T09:00:43.347Z,8.90
2017-11-09T09:03:15.222Z,8.90
2017-11-09T09:05:47.133Z,8.90
2017-11-09T09:08:19.022Z,8.90
2017-11-09T09:10:50.929Z,8.90
2017-11-09T09:13:22.804Z,9.00
2017-11-09T09:15:54.733Z,9.00
2017-11-09T09:18:26.610Z,9.00
2017-11-09T09:20:58.514Z,9.00
2017-11-09T09:23:30.394Z,9.00
2017-11-09T09:26:02.297Z,9.10
2017-11-09T09:28:34.937Z,9.10
2017-11-09T09:31:06.832Z,9.10
2017-11-09T09:33:40.393Z,9.10
2017-11-09T09:36:13.437Z,9.20
2017-11-09T09:38:47.237Z,9.30
2017-11-09T09:41:19.904Z,9.30
2017-11-09T09:43:51.785Z,9.30
2017-11-09T09:46:24.477Z,9.40
2017-11-09T09:48:56.361Z,9.60
2017-11-09T09:51:28.270Z,9.70
2017-11-09T09:54:00.919Z,10.00
2017-11-09T09:56:32.819Z,9.90
2017-11-09T09:59:05.461Z,10.10
2017-11-09T10:01:37.386Z,10.10
2017-11-09T10:04:09.261Z,10.10
2017-11-09T10:06:41.149Z,10.10
2017-11-09T10:09:13.030Z,10.10
2017-11-09T10:11:45.681Z,10.10
2017-11-09T10:14:17.556Z,10.10
2017-11-09T10:16:49.466Z,10.10
2017-11-09T10:19:21.342Z,10.10
2017-11-09T10:21:53.246Z,10.10
2017-11-09T10:24:25.890Z,10.20
2017-11-09T10:26:57.805Z,10.20
2017-11-09T10:29:29.694Z,10.20
2017-11-09T10:32:02.040Z,10.30
2017-11-09T10:34:33.956Z,10.30
2017-11-09T10:37:05.882Z,10.30
2017-11-09T10:39:37.774Z,10.20
2017-11-09T10:42:09.698Z,10.30
2017-11-09T10:44:41.587Z,10.30
2017-11-09T10:47:13.482Z,10.30
2017-11-09T10:49:46.137Z,10.30
2017-11-09T10:52:18.049Z,10.30
2017-11-09T10:54:49.930Z,10.30
2017-11-09T10:57:21.826Z,10.40
2017-11-09T10:59:53.705Z,10.40
2017-11-09T11:02:26.401Z,10.40
2017-11-09T11:04:58.304Z,10.30
2017-11-09T11:07:30.230Z,10.40
2017-11-09T11:10:02.118Z,10.40
2017-11-09T11:12:34.245Z,10.40
2017-11-09T11:15:06.120Z,10.40
2017-11-09T11:17:38.032Z,10.40
2017-11-09T11:20:09.897Z,10.40
2017-11-09T11:22:41.800Z,10.40
2017-11-09T11:25:13.684Z,10.40
2017-11-09T11:27:45.593Z,10.50
2017-11-09T11:30:18.234Z,10.40
2017-11-09T11:32:50.144Z,10.40
2017-11-09T11:35:22.034Z,10.40
2017-11-09T11:37:53.930Z,10.40
2017-11-09T11:40:25.810Z,10.40
2017-11-09T11:42:58.493Z,10.40
2017-11-09T11:45:30.381Z,10.40
2017-11-09T11:48:02.278Z,10.40
2017-11-09T11:50:34.150Z,10.50
2017-11-09T11:53:06.087Z,10.50
2017-11-09T11:55:37.993Z,10.70
2017-11-09T11:58:10.677Z,10.90
2017-11-09T12:00:43.339Z,10.80
2017-11-09T12:03:15.240Z,10.80
2017-11-09T12:05:47.130Z,10.80
2017-11-09T12:08:19.041Z,10.70
2017-11-09T12:10:50.930Z,10.70
2017-11-09T12:13:22.821Z,10.70
2017-11-09T12:15:54.836Z,10.70
2017-11-09T12:18:26.728Z,10.80
2017-11-09T12:20:58.625Z,10.80
2017-11-09T12:23:31.297Z,10.80
2017-11-09T12:26:03.181Z,10.70
2017-11-09T12:28:35.861Z,10.80
2017-11-09T12:31:07.734Z,10.80
2017-11-09T12:33:39.644Z,10.80
2017-11-09T12:36:12.353Z,10.80
2017-11-09T12:38:50.059Z,10.90
2017-11-09T12:41:21.937Z,10.90
2017-11-09T12:43:53.846Z,11.00
2017-11-09T12:46:25.740Z,11.00
2017-11-09T12:48:58.406Z,11.10
2017-11-09T12:51:31.050Z,11.20
2017-11-09T12:54:02.957Z,11.10
2017-11-09T12:56:34.837Z,11.20
2017-11-09T12:59:06.728Z,11.20
2017-11-09T13:01:38.605Z,11.20
2017-11-09T13:04:10.512Z,11.10
2017-11-09T13:06:42.390Z,11.00
2017-11-09T13:09:14.301Z,11.00
2017-11-09T13:11:46.952Z,10.90
2017-11-09T13:14:18.861Z,10.90
2017-11-09T13:16:50.746Z,11.00
2017-11-09T13:19:22.667Z,11.10
2017-11-09T13:21:55.314Z,11.10
2017-11-09T13:24:27.225Z,11.10
2017-11-09T13:26:59.104Z,11.00
2017-11-09T13:29:31.039Z,10.90
2017-11-09T13:32:03.047Z,10.80
2017-11-09T13:34:35.782Z,10.60
2017-11-09T13:37:08.413Z,10.50
2017-11-09T13:39:40.317Z,10.50
2017-11-09T13:42:12.953Z,10.40
2017-11-09T13:44:44.864Z,10.40
2017-11-09T13:47:16.740Z,10.40
2017-11-09T13:49:48.649Z,10.30
2017-11-09T13:52:20.525Z,10.40
2017-11-09T13:54:53.430Z,10.30
2017-11-09T13:57:25.303Z,10.30
2017-11-09T13:59:57.202Z,10.30
2017-11-09T14:02:29.080Z,10.20
2017-11-09T14:05:01.749Z,10.20
2017-11-09T14:07:34.456Z,10.20
2017-11-09T14:10:06.378Z,10.20
2017-11-09T14:12:38.258Z,10.10
2017-11-09T14:15:10.169Z,10.20
2017-11-09T14:17:42.058Z,10.20
2017-11-09T14:20:13.952Z,10.20
2017-11-09T14:22:46.594Z,10.30
2017-11-09T14:25:18.484Z,10.30
2017-11-09T14:27:51.129Z,10.40
2017-11-09T14:30:23.801Z,10.40
2017-11-09T14:32:55.681Z,10.40
2017-11-09T14:35:27.592Z,10.40
2017-11-09T14:37:59.477Z,10.40
2017-11-09T14:40:31.444Z,10.30
2017-11-09T14:43:03.330Z,10.20
2017-11-09T14:45:35.240Z,10.10
2017-11-09T14:48:07.122Z,10.10
2017-11-09T14:50:39.038Z,10.00
2017-11-09T14:53:11.678Z,9.90
2017-11-09T14:55:49.421Z,9.90
2017-11-09T14:58:21.307Z,9.90
2017-11-09T15:00:53.213Z,9.80
2017-11-09T15:03:25.081Z,9.80
2017-11-09T15:05:57.738Z,9.70
2017-11-09T15:08:29.609Z,9.70
2017-11-09T15:11:01.630Z,9.70
2017-11-09T15:13:33.500Z,9.60
2017-11-09T15:16:05.471Z,9.60
2017-11-09T15:18:37.367Z,9.50
2017-11-09T15:21:10.037Z,9.40
2017-11-09T15:23:41.914Z,9.40
2017-11-09T15:26:13.820Z,9.40
2017-11-09T15:28:45.697Z,9.30
2017-11-09T15:31:17.587Z,9.20
2017-11-09T15:33:50.257Z,9.20
2017-11-09T15:36:22.180Z,9.20
2017-11-09T15:38:54.069Z,9.20
2017-11-09T15:41:25.957Z,9.20
2017-11-09T15:43:58.603Z,9.10
2017-11-09T15:46:30.522Z,9.10
2017-11-09T15:49:02.406Z,9.00
2017-11-09T15:51:34.289Z,9.00
2017-11-09T15:54:06.162Z,9.00
2017-11-09T15:56:38.816Z,9.00
2017-11-09T15:59:10.722Z,9.00
2017-11-09T16:01:43.390Z,9.00
2017-11-09T16:04:16.038Z,9.00
2017-11-09T16:06:47.941Z,9.00
2017-11-09T16:09:19.817Z,8.90
2017-11-09T16:11:51.838Z,8.90
2017-11-09T16:14:23.712Z,8.90
2017-11-09T16:16:56.398Z,8.80
2017-11-09T16:19:29.037Z,8.70
2017-11-09T16:22:00.941Z,8.70
2017-11-09T16:24:32.817Z,8.60
2017-11-09T16:27:04.721Z,8.60
2017-11-09T16:29:36.616Z,8.50
2017-11-09T16:32:09.285Z,8.40
2017-11-09T16:34:41.936Z,8.40
2017-11-09T16:37:13.821Z,8.40
2017-11-09T16:39:46.452Z,8.40
2017-11-09T16:42:18.369Z,8.30
2017-11-09T16:44:51.950Z,8.30
2017-11-09T16:47:23.840Z,8.30
2017-11-09T16:49:55.720Z,8.20
2017-11-09T16:52:27.633Z,8.20
2017-11-09T16:55:00.269Z,8.10
2017-11-09T16:57:32.172Z,8.10
2017-11-09T17:00:04.837Z,8.10
2017-11-09T17:02:36.752Z,8.10
2017-11-09T17:05:08.626Z,8.10
2017-11-09T17:07:40.518Z,8.10
2017-11-09T17:10:12.407Z,8.10
2017-11-09T17:12:45.072Z,8.10
2017-11-09T17:15:16.948Z,8.10
2017-11-09T17:17:48.861Z,8.10
2017-11-09T17:20:20.739Z,8.00
2017-11-09T17:22:52.662Z,8.00
2017-11-09T17:25:24.550Z,8.00
2017-11-09T17:27:56.450Z,8.00
2017-11-09T17:30:29.091Z,8.00
2017-11-09T17:33:00.985Z,8.00
2017-11-09T17:35:32.858Z,8.00
2017-11-09T17:38:04.782Z,8.10
2017-11-09T17:40:36.669Z,8.10
2017-11-09T17:43:09.350Z,8.20
2017-11-09T17:45:41.993Z,8.20
2017-11-09T17:48:13.904Z,8.20
2017-11-09T17:50:45.785Z,8.30
2017-11-09T17:53:17.693Z,8.30
2017-11-09T17:55:50.334Z,8.30
2017-11-09T17:58:22.293Z,8.30
2017-11-09T18:00:54.168Z,8.30
2017-11-09T18:03:26.080Z,8.20
2017-11-09T18:05:58.234Z,8.20
2017-11-09T18:08:30.916Z,8.10
2017-11-09T18:11:03.556Z,8.10
2017-11-09T18:13:35.486Z,8.10
2017-11-09T18:16:07.366Z,8.10
2017-11-09T18:18:39.281Z,8.10
2017-11-09T18:21:11.162Z,8.10
2017-11-09T18:23:43.081Z,8.10
2017-11-09T18:26:15.730Z,8.00
2017-11-09T18:28:47.625Z,8.00
2017-11-09T18:31:20.277Z,8.00
2017-11-09T18:33:52.174Z,8.00
2017-11-09T18:36:24.821Z,7.90
2017-11-09T18:38:56.876Z,7.90
2017-11-09T18:41:28.752Z,7.90
2017-11-09T18:44:00.662Z,7.90
2017-11-09T18:46:32.550Z,7.90
2017-11-09T18:49:04.464Z,7.90
2017-11-09T18:51:36.378Z,7.90
2017-11-09T18:54:08.278Z,7.90
2017-11-09T18:56:40.165Z,7.80
2017-11-09T18:59:12.061Z,7.80
2017-11-09T19:01:43.937Z,7.80
2017-11-09T19:04:15.833Z,7.80
2017-11-09T19:06:47.727Z,7.80
2017-11-09T19:09:19.620Z,7.80
2017-11-09T19:11:52.272Z,7.80
2017-11-09T19:14:24.178Z,7.80
2017-11-09T19:16:56.073Z,7.80
2017-11-09T19:19:27.985Z,7.80
2017-11-09T19:22:00.634Z,7.80
2017-11-09T19:24:32.545Z,7.70
2017-11-09T19:27:04.430Z,7.70
2017-11-09T19:29:36.341Z,7.80
2017-11-09T19:32:08.980Z,7.80
2017-11-09T19:34:40.870Z,7.80
2017-11-09T19:37:12.761Z,7.80
2017-11-09T19:39:44.675Z,7.80
2017-11-09T19:42:16.558Z,7.80
2017-11-09T19:44:49.239Z,7.80
2017-11-09T19:47:21.878Z,7.80
2017-11-09T19:49:53.788Z,7.80
2017-11-09T19:52:26.680Z,7.80
2017-11-09T19:54:58.596Z,7.80
2017-11-09T19:57:30.475Z,7.80
2017-11-09T20:00:02.386Z,7.80
2017-11-09T20:02:34.275Z,7.90
2017-11-09T20:05:06.175Z,7.90
2017-11-09T20:07:38.826Z,7.90
2017-11-09T20:10:10.729Z,7.90
2017-11-09T20:12:42.637Z,8.00
2017-11-09T20:15:14.530Z,8.00
2017-11-09T20:17:47.169Z,8.00
2017-11-09T20:20:19.094Z,8.00
2017-11-09T20:22:50.974Z,8.00
2017-11-09T20:25:22.891Z,8.00
2017-11-09T20:27:55.533Z,8.00
2017-11-09T20:30:27.430Z,8.00
2017-11-09T20:33:00.070Z,8.10
2017-11-09T20:35:31.963Z,8.10
2017-11-09T20:38:04.600Z,8.10
2017-11-09T20:40:36.505Z,8.10
2017-11-09T20:43:09.149Z,8.20
2017-11-09T20:45:41.065Z,8.10
2017-11-09T20:48:12.945Z,8.20
2017-11-09T20:50:44.837Z,8.20
2017-11-09T20:53:16.714Z,8.20
2017-11-09T20:55:49.373Z,8.20
2017-11-09T20:58:21.265Z,8.20
2017-11-09T21:00:53.189Z,8.20
2017-11-09T21:03:25.058Z,8.20
2017-11-09T21:05:56.973Z,8.20
2017-11-09T21:08:28.853Z,8.20
2017-11-09T21:11:00.765Z,8.30
2017-11-09T21:13:32.643Z,8.30
2017-11-09T21:16:04.533Z,8.30
2017-11-09T21:18:36.404Z,8.30
2017-11-09T21:21:08.302Z,8.30
2017-11-09T21:23:40.946Z,8.30
2017-11-09T21:26:12.837Z,8.30
2017-11-09T21:28:45.485Z,8.30
2017-11-09T21:31:17.401Z,8.30
2017-11-09T21:33:49.293Z,8.30
2017-11-09T21:36:21.304Z,8.30
2017-11-09T21:38:53.940Z,8.30
2017-11-09T21:41:26.011Z,8.30
2017-11-09T21:43:57.881Z,8.30
2017-11-09T21:46:29.793Z,8.30
2017-11-09T21:49:01.670Z,8.30
2017-11-09T21:51:33.566Z,8.30
2017-11-09T21:54:05.446Z,8.30
2017-11-09T21:56:38.121Z,8.30
2017-11-09T21:59:10.761Z,8.30
2017-11-09T22:01:42.649Z,8.30
2017-11-09T22:04:14.534Z,8.30
2017-11-09T22:06:46.446Z,8.30
2017-11-09T22:09:18.321Z,8.30
2017-11-09T22:11:50.222Z,8.30
2017-11-09T22:14:22.093Z,8.30
2017-11-09T22:16:54.001Z,8.30
2017-11-09T22:19:25.884Z,8.30
2017-11-09T22:21:58.556Z,8.30
2017-11-09T22:24:31.193Z,8.30
2017-11-09T22:27:03.116Z,8.30
2017-11-09T22:29:34.989Z,8.30
2017-11-09T22:32:06.930Z,8.30
2017-11-09T22:34:38.824Z,8.30
2017-11-09T22:37:10.735Z,8.30
2017-11-09T22:39:42.619Z,8.30
2017-11-09T22:42:14.529Z,8.30
2017-11-09T22:44:46.413Z,8.30
2017-11-09T22:47:18.321Z,8.30
